createdAt,value
2019-06-07T00:00:27.078Z,101256.19
2019-06-07T00:01:11.205Z,101259.61
2019-06-07T00:02:16.468Z,101253.56
2019-06-07T00:03:27.458Z,101261.44
2019-06-07T00:04:22.347Z,101264.07
2019-06-07T00:05:24.608Z,101267.09
2019-06-07T00:06:27.184Z,101268.41
2019-06-07T00:07:29.430Z,101273.27
2019-06-07T00:08:32.057Z,101277.99
2019-06-07T00:09:34.253Z,101281.14
2019-06-07T00:10:37.339Z,101275.77
2019-06-07T00:11:39.689Z,101279.30
2019-06-07T00:12:42.279Z,101283.24
2019-06-07T00:13:44.489Z,101277.08
2019-06-07T00:14:47.102Z,101278.39
2019-06-07T00:15:49.329Z,101274.45
2019-06-07T00:16:51.944Z,101279.30
2019-06-07T00:17:54.164Z,101281.02
2019-06-07T00:18:56.763Z,101279.70
2019-06-07T00:19:58.984Z,101285.48
2019-06-07T00:21:01.588Z,101281.41
2019-06-07T00:22:17.641Z,101281.94
2019-06-07T00:23:08.709Z,101285.74
2019-06-07T00:24:14.322Z,101277.08
2019-06-07T00:25:22.886Z,101286.66
2019-06-07T00:26:21.269Z,101284.03
2019-06-07T00:27:24.131Z,101282.33
2019-06-07T00:28:26.334Z,101281.80
2019-06-07T00:29:28.947Z,101281.80
2019-06-07T00:30:44.578Z,101280.49
2019-06-07T00:31:35.433Z,101291.00
2019-06-07T00:32:37.625Z,101288.89
2019-06-07T00:33:40.251Z,101284.95
2019-06-07T00:34:42.474Z,101289.69
2019-06-07T00:35:45.060Z,101288.89
2019-06-07T00:36:47.283Z,101286.66
2019-06-07T00:37:49.905Z,101285.74
2019-06-07T00:38:52.119Z,101291.78
2019-06-07T00:40:13.345Z,101290.47
2019-06-07T00:40:58.570Z,101293.75
2019-06-07T00:42:01.173Z,101295.33
2019-06-07T00:43:03.418Z,101296.25
2019-06-07T00:44:06.012Z,101291.78
2019-06-07T00:45:08.226Z,101295.73
2019-06-07T00:46:14.089Z,101294.41
2019-06-07T00:47:16.464Z,101295.33
2019-06-07T00:48:27.341Z,101294.41
2019-06-07T00:49:39.976Z,101296.12
2019-06-07T00:50:27.085Z,101296.12
2019-06-07T00:51:47.577Z,101294.81
2019-06-07T00:53:37.416Z,101292.19
2019-06-07T00:54:40.085Z,101288.24
2019-06-07T00:55:42.231Z,101289.56
2019-06-07T00:56:44.834Z,101294.81
2019-06-07T00:57:47.068Z,101296.12
2019-06-07T00:59:09.855Z,101293.50
2019-06-07T00:59:53.572Z,101296.48
2019-06-07T01:00:56.166Z,101294.25
2019-06-07T01:01:58.364Z,101294.81
2019-06-07T01:03:00.967Z,101289.92
2019-06-07T01:04:03.197Z,101293.86
2019-06-07T01:05:05.863Z,101297.80
2019-06-07T01:06:08.082Z,101293.86
2019-06-07T01:07:10.681Z,101290.31
2019-06-07T01:08:14.858Z,101292.54
2019-06-07T01:09:17.779Z,101285.45
2019-06-07T01:10:46.448Z,101283.75
2019-06-07T01:11:26.144Z,101285.06
2019-06-07T01:12:28.080Z,101276.66
2019-06-07T01:13:30.808Z,101282.04
2019-06-07T01:14:33.033Z,101280.20
2019-06-07T01:15:35.655Z,101288.08
2019-06-07T01:16:56.753Z,101286.77
2019-06-07T01:18:11.889Z,101290.70
2019-06-07T01:18:50.578Z,101289.39
2019-06-07T01:19:50.225Z,101293.73
2019-06-07T01:20:52.488Z,101289.27
2019-06-07T01:21:55.035Z,101289.39
2019-06-07T01:22:57.288Z,101287.16
2019-06-07T01:24:11.394Z,101288.48
2019-06-07T01:25:03.761Z,101292.81
2019-06-07T01:26:06.362Z,101291.50
2019-06-07T01:27:08.620Z,101298.98
2019-06-07T01:28:11.252Z,101298.98
2019-06-07T01:29:13.508Z,101293.20
2019-06-07T01:30:16.245Z,101293.73
2019-06-07T01:31:21.098Z,101297.67
2019-06-07T01:32:24.674Z,101299.38
2019-06-07T01:33:46.403Z,101298.06
2019-06-07T01:34:30.960Z,101298.06
2019-06-07T01:35:33.148Z,101297.67
2019-06-07T01:36:35.743Z,101297.14
2019-06-07T01:37:37.947Z,101292.81
2019-06-07T01:38:40.589Z,101294.52
2019-06-07T01:39:42.803Z,101289.27
2019-06-07T01:40:45.402Z,101289.27
2019-06-07T01:41:47.613Z,101283.09
2019-06-07T01:42:50.217Z,101284.02
2019-06-07T01:43:52.461Z,101290.58
2019-06-07T01:44:55.060Z,101287.95
2019-06-07T01:45:57.283Z,101289.66
2019-06-07T01:46:59.879Z,101289.66
2019-06-07T01:48:02.107Z,101290.58
2019-06-07T01:49:04.738Z,101293.20
2019-06-07T01:50:06.949Z,101293.20
2019-06-07T01:51:09.546Z,101290.58
2019-06-07T01:52:11.768Z,101287.03
2019-06-07T01:53:14.363Z,101293.20
2019-06-07T01:55:23.606Z,101287.03
2019-06-07T01:56:28.275Z,101289.66
2019-06-07T01:57:44.209Z,101290.06
2019-06-07T01:58:32.879Z,101292.69
2019-06-07T01:59:35.493Z,101294.52
2019-06-07T02:00:37.724Z,101290.06
2019-06-07T02:01:40.312Z,101290.45
2019-06-07T02:02:42.519Z,101291.77
2019-06-07T02:03:45.159Z,101286.12
2019-06-07T02:04:48.489Z,101290.45
2019-06-07T02:05:51.104Z,101287.83
2019-06-07T02:06:53.303Z,101282.58
2019-06-07T02:07:55.894Z,101286.12
2019-06-07T02:08:58.117Z,101284.28
2019-06-07T02:10:00.730Z,101280.34
2019-06-07T02:11:02.934Z,101278.63
2019-06-07T02:12:25.221Z,101274.70
2019-06-07T02:13:09.388Z,101275.09
2019-06-07T02:14:11.991Z,101278.11
2019-06-07T02:15:14.221Z,101268.92
2019-06-07T02:16:16.831Z,101273.38
2019-06-07T02:17:20.260Z,101272.86
2019-06-07T02:18:25.126Z,101282.58
2019-06-07T02:19:31.166Z,101279.95
2019-06-07T02:20:34.204Z,101282.05
2019-06-07T02:21:35.311Z,101281.13
2019-06-07T02:22:37.914Z,101286.91
2019-06-07T02:23:40.104Z,101281.13
2019-06-07T02:24:43.788Z,101282.05
2019-06-07T02:25:50.399Z,101279.42
2019-06-07T02:26:50.294Z,101276.67
2019-06-07T02:27:52.507Z,101275.48
2019-06-07T02:28:55.105Z,101279.82
2019-06-07T02:29:57.313Z,101276.80
2019-06-07T02:31:00.729Z,101279.42
2019-06-07T02:32:03.072Z,101276.80
2019-06-07T02:33:05.642Z,101276.80
2019-06-07T02:34:07.852Z,101275.48
2019-06-07T02:35:10.452Z,101272.34
2019-06-07T02:36:12.750Z,101271.02
2019-06-07T02:37:15.273Z,101276.80
2019-06-07T02:38:17.489Z,101273.65
2019-06-07T02:39:23.297Z,101268.80
2019-06-07T02:40:24.536Z,101272.34
2019-06-07T02:41:35.339Z,101269.71
2019-06-07T02:42:38.939Z,101274.05
2019-06-07T02:43:37.199Z,101274.97
2019-06-07T02:44:40.461Z,101277.98
2019-06-07T02:45:43.923Z,101266.17
2019-06-07T02:46:49.613Z,101263.55
2019-06-07T02:47:50.574Z,101267.09
2019-06-07T02:48:52.790Z,101261.31
2019-06-07T02:49:55.501Z,101261.70
2019-06-07T02:50:57.708Z,101262.23
2019-06-07T02:52:00.392Z,101260.39
2019-06-07T02:53:02.570Z,101262.62
2019-06-07T02:54:05.167Z,101258.69
2019-06-07T02:55:07.385Z,101261.31
2019-06-07T02:56:37.888Z,101258.69
2019-06-07T02:57:13.840Z,101261.70
2019-06-07T02:58:16.432Z,101265.25
2019-06-07T02:59:18.645Z,101255.14
2019-06-07T03:00:46.067Z,101261.70
2019-06-07T03:01:27.655Z,101264.33
2019-06-07T03:02:33.558Z,101263.55
2019-06-07T03:03:38.763Z,101259.47
2019-06-07T03:04:42.157Z,101266.95
2019-06-07T03:05:41.334Z,101263.41
2019-06-07T03:06:44.311Z,101266.95
2019-06-07T03:07:46.767Z,101268.67
2019-06-07T03:08:49.362Z,101271.29
2019-06-07T03:09:51.575Z,101269.59
2019-06-07T03:10:54.183Z,101267.75
2019-06-07T03:11:56.603Z,101263.41
2019-06-07T03:12:59.211Z,101266.04
2019-06-07T03:14:01.448Z,101264.73
2019-06-07T03:15:04.056Z,101268.67
2019-06-07T03:16:06.875Z,101261.19
2019-06-07T03:17:23.194Z,101270.38
2019-06-07T03:18:59.439Z,101263.81
2019-06-07T03:20:03.182Z,101264.73
2019-06-07T03:21:06.868Z,101273.39
2019-06-07T03:22:09.069Z,101267.75
2019-06-07T03:23:11.688Z,101262.89
2019-06-07T03:24:13.894Z,101261.97
2019-06-07T03:25:16.515Z,101261.58
2019-06-07T03:26:18.736Z,101262.89
2019-06-07T03:27:34.659Z,101261.97
2019-06-07T03:28:25.206Z,101264.59
2019-06-07T03:29:28.918Z,101264.59
2019-06-07T03:30:41.618Z,101263.29
2019-06-07T03:31:45.378Z,101259.34
2019-06-07T03:32:46.760Z,101256.72
2019-06-07T03:33:45.616Z,101256.33
2019-06-07T03:34:48.013Z,101266.44
2019-06-07T03:35:50.604Z,101263.29
2019-06-07T03:36:52.815Z,101262.37
2019-06-07T03:37:55.428Z,101264.20
2019-06-07T03:38:57.660Z,101262.37
2019-06-07T03:40:00.272Z,101263.69
2019-06-07T03:41:02.468Z,101265.91
2019-06-07T03:42:06.778Z,101262.37
2019-06-07T03:43:08.936Z,101264.59
2019-06-07T03:44:11.564Z,101264.20
2019-06-07T03:45:13.769Z,101261.97
2019-06-07T03:46:16.366Z,101258.83
2019-06-07T03:47:18.592Z,101264.99
2019-06-07T03:48:21.192Z,101258.43
2019-06-07T03:49:23.422Z,101258.43
2019-06-07T03:50:28.327Z,101260.14
2019-06-07T03:51:30.652Z,101257.52
2019-06-07T03:52:37.128Z,101259.34
2019-06-07T03:53:40.813Z,101258.43
2019-06-07T03:54:42.271Z,101255.41
2019-06-07T03:55:44.495Z,101259.34
2019-06-07T03:56:47.156Z,101258.83
2019-06-07T03:58:54.768Z,101261.97
2019-06-07T03:59:56.973Z,101269.85
2019-06-07T04:01:02.080Z,101271.56
2019-06-07T04:02:03.442Z,101275.50
2019-06-07T04:03:06.059Z,101279.04
2019-06-07T04:04:08.306Z,101276.81
2019-06-07T04:05:10.936Z,101277.60
2019-06-07T04:06:13.226Z,101282.98
2019-06-07T04:07:15.868Z,101279.44
2019-06-07T04:08:18.110Z,101271.95
2019-06-07T04:09:20.783Z,101268.94
2019-06-07T04:10:44.633Z,101270.25
2019-06-07T04:11:27.816Z,101265.91
2019-06-07T04:12:31.835Z,101265.52
2019-06-07T04:13:37.573Z,101267.63
2019-06-07T04:14:40.872Z,101268.02
2019-06-07T04:15:42.510Z,101266.31
2019-06-07T04:16:45.174Z,101268.94
2019-06-07T04:18:01.538Z,101268.02
2019-06-07T04:18:51.705Z,101276.81
2019-06-07T04:19:54.311Z,101276.81
2019-06-07T04:20:56.552Z,101279.04
2019-06-07T04:21:59.155Z,101280.63
2019-06-07T04:23:01.388Z,101286.00
2019-06-07T04:24:03.994Z,101284.81
2019-06-07T04:25:06.241Z,101284.55
2019-06-07T04:26:08.823Z,101289.93
2019-06-07T04:27:11.055Z,101289.93
2019-06-07T04:28:13.664Z,101292.55
2019-06-07T04:29:34.002Z,101299.13
2019-06-07T04:30:20.159Z,101300.03
2019-06-07T04:31:22.393Z,101300.95
2019-06-07T04:32:24.998Z,101303.06
2019-06-07T04:33:28.438Z,101300.30
2019-06-07T04:34:34.855Z,101301.22
2019-06-07T04:35:37.151Z,101299.52
2019-06-07T04:36:55.189Z,101292.16
2019-06-07T04:37:43.325Z,101294.78
2019-06-07T04:38:45.938Z,101294.27
2019-06-07T04:39:48.229Z,101294.78
2019-06-07T04:40:50.851Z,101296.49
2019-06-07T04:41:53.083Z,101293.87
2019-06-07T04:42:55.706Z,101292.42
2019-06-07T04:43:57.972Z,101295.97
2019-06-07T04:45:00.586Z,101295.58
2019-06-07T04:46:02.803Z,101295.45
2019-06-07T04:47:05.439Z,101297.02
2019-06-07T04:48:07.654Z,101304.50
2019-06-07T04:49:10.273Z,101294.91
2019-06-07T04:50:12.487Z,101290.45
2019-06-07T04:51:15.325Z,101289.66
2019-06-07T04:52:17.799Z,101291.77
2019-06-07T04:53:20.389Z,101287.43
2019-06-07T04:54:22.627Z,101292.69
2019-06-07T04:55:25.422Z,101290.45
2019-06-07T04:56:29.627Z,101294.78
2019-06-07T04:57:33.470Z,101296.49
2019-06-07T04:58:35.890Z,101294.27
2019-06-07T05:00:10.913Z,101296.37
2019-06-07T05:00:56.498Z,101293.73
2019-06-07T05:01:47.047Z,101298.99
2019-06-07T05:02:49.270Z,101287.97
2019-06-07T05:03:51.855Z,101286.25
2019-06-07T05:04:54.187Z,101296.37
2019-06-07T05:05:56.791Z,101290.20
2019-06-07T05:06:58.997Z,101295.45
2019-06-07T05:08:07.459Z,101292.82
2019-06-07T05:09:05.707Z,101302.02
2019-06-07T05:10:08.315Z,101301.62
2019-06-07T05:11:10.551Z,101296.77
2019-06-07T05:12:13.154Z,101293.73
2019-06-07T05:13:15.377Z,101293.73
2019-06-07T05:14:18.080Z,101295.05
2019-06-07T05:15:20.327Z,101302.93
2019-06-07T05:16:22.931Z,101300.30
2019-06-07T05:17:25.258Z,101304.24
2019-06-07T05:18:27.874Z,101305.69
2019-06-07T05:19:30.570Z,101306.08
2019-06-07T05:20:36.083Z,101307.39
2019-06-07T05:21:59.858Z,101306.08
2019-06-07T05:22:45.218Z,101306.60
2019-06-07T05:24:51.474Z,101304.50
2019-06-07T05:25:53.697Z,101311.06
2019-06-07T05:26:56.307Z,101312.38
2019-06-07T05:27:58.545Z,101314.48
2019-06-07T05:29:01.146Z,101318.94
2019-06-07T05:30:36.504Z,101316.71
2019-06-07T05:31:08.181Z,101312.77
2019-06-07T05:32:12.388Z,101311.46
2019-06-07T05:33:15.029Z,101314.09
2019-06-07T05:34:17.242Z,101307.39
2019-06-07T05:35:19.982Z,101311.33
2019-06-07T05:36:22.294Z,101315.09
2019-06-07T05:37:24.917Z,101312.31
2019-06-07T05:38:27.135Z,101310.50
2019-06-07T05:39:30.187Z,101309.34
2019-06-07T05:40:34.853Z,101313.59
2019-06-07T05:41:41.204Z,101302.78
2019-06-07T05:42:45.932Z,101305.23
2019-06-07T05:44:00.889Z,101313.08
2019-06-07T05:44:49.955Z,101309.67
2019-06-07T05:45:52.571Z,101304.23
2019-06-07T05:46:54.989Z,101309.73
2019-06-07T05:47:57.615Z,101302.27
2019-06-07T05:49:00.475Z,101308.97
2019-06-07T05:50:03.317Z,101304.33
2019-06-07T05:51:05.904Z,101302.74
2019-06-07T05:52:09.010Z,101306.40
2019-06-07T05:53:11.198Z,101299.75
2019-06-07T05:54:13.827Z,101301.06
2019-06-07T05:55:16.076Z,101296.34
2019-06-07T05:56:18.711Z,101297.68
2019-06-07T05:57:20.889Z,101299.45
2019-06-07T05:58:23.529Z,101294.80
2019-06-07T05:59:25.785Z,101294.20
2019-06-07T06:00:28.419Z,101288.57
2019-06-07T06:01:45.977Z,101292.11
2019-06-07T06:02:56.791Z,101291.54
2019-06-07T06:03:40.365Z,101287.73
2019-06-07T06:04:48.528Z,101286.47
2019-06-07T06:05:54.601Z,101287.78
2019-06-07T06:06:51.206Z,101280.20
2019-06-07T06:07:53.457Z,101284.41
2019-06-07T06:09:12.827Z,101280.72
2019-06-07T06:09:59.959Z,101276.22
2019-06-07T06:11:02.632Z,101270.56
2019-06-07T06:12:04.822Z,101262.70
2019-06-07T06:13:07.433Z,101266.63
2019-06-07T06:14:09.677Z,101261.41
2019-06-07T06:15:12.286Z,101250.08
2019-06-07T06:16:14.518Z,101257.02
2019-06-07T06:17:17.127Z,101258.08
2019-06-07T06:18:19.372Z,101260.22
2019-06-07T06:19:21.986Z,101259.83
2019-06-07T06:20:24.208Z,101263.30
2019-06-07T06:21:26.842Z,101254.12
2019-06-07T06:22:29.126Z,101254.06
2019-06-07T06:23:31.733Z,101254.25
2019-06-07T06:24:33.954Z,101248.57
2019-06-07T06:25:38.663Z,101249.41
2019-06-07T06:26:46.246Z,101253.35
2019-06-07T06:28:49.738Z,101261.23
2019-06-07T06:29:52.616Z,101261.14
2019-06-07T06:30:54.840Z,101265.09
2019-06-07T06:32:40.578Z,101263.38
2019-06-07T06:33:01.360Z,101276.05
2019-06-07T06:34:04.037Z,101272.38
2019-06-07T06:35:06.278Z,101278.41
2019-06-07T06:36:08.902Z,101281.16
2019-06-07T06:37:11.199Z,101282.42
2019-06-07T06:38:13.741Z,101285.58
2019-06-07T06:39:16.164Z,101282.56
2019-06-07T06:40:18.823Z,101281.96
2019-06-07T06:41:21.222Z,101283.14
2019-06-07T06:42:23.944Z,101290.61
2019-06-07T06:43:26.177Z,101284.31
2019-06-07T06:44:28.774Z,101290.47
2019-06-07T06:45:31.050Z,101286.41
2019-06-07T06:46:41.138Z,101292.30
2019-06-07T06:47:38.261Z,101295.53
2019-06-07T06:48:47.366Z,101299.72
2019-06-07T06:49:46.867Z,101295.22
2019-06-07T06:50:52.227Z,101299.24
2019-06-07T06:51:53.861Z,101304.17
2019-06-07T06:52:56.720Z,101308.77
2019-06-07T06:53:58.989Z,101308.94
2019-06-07T06:55:01.659Z,101311.44
2019-06-07T06:56:03.976Z,101310.91
2019-06-07T06:57:18.998Z,101309.08
2019-06-07T06:58:10.484Z,101313.14
2019-06-07T06:59:37.426Z,101311.97
2019-06-07T07:00:16.962Z,101309.08
2019-06-07T07:01:19.573Z,101319.03
2019-06-07T07:02:21.816Z,101311.70
2019-06-07T07:03:56.552Z,101318.59
2019-06-07T07:04:30.309Z,101319.81
2019-06-07T07:05:32.590Z,101314.71
2019-06-07T07:06:34.805Z,101316.63
2019-06-07T07:07:37.519Z,101320.34
2019-06-07T07:08:40.887Z,101324.36
2019-06-07T07:09:47.613Z,101322.05
2019-06-07T07:10:52.079Z,101322.05
2019-06-07T07:12:09.758Z,101326.64
2019-06-07T07:12:55.739Z,101322.57
2019-06-07T07:13:58.347Z,101325.86
2019-06-07T07:15:00.568Z,101326.25
2019-06-07T07:16:03.197Z,101333.86
2019-06-07T07:17:05.425Z,101329.53
2019-06-07T07:18:09.029Z,101327.32
2019-06-07T07:19:11.372Z,101329.67
2019-06-07T07:20:14.125Z,101336.09
2019-06-07T07:21:16.414Z,101338.18
2019-06-07T07:22:19.068Z,101339.63
2019-06-07T07:23:21.298Z,101339.23
2019-06-07T07:24:23.928Z,101336.88
2019-06-07T07:25:26.134Z,101335.30
2019-06-07T07:26:29.501Z,101334.77
2019-06-07T07:27:31.723Z,101336.09
2019-06-07T07:28:34.376Z,101334.38
2019-06-07T07:29:36.585Z,101328.09
2019-06-07T07:30:39.210Z,101327.70
2019-06-07T07:31:42.966Z,101326.91
2019-06-07T07:32:48.432Z,101329.41
2019-06-07T07:35:00.033Z,101328.55
2019-06-07T07:36:28.558Z,101317.92
2019-06-07T07:37:02.251Z,101316.42
2019-06-07T07:38:06.041Z,101324.80
2019-06-07T07:39:08.651Z,101315.88
2019-06-07T07:40:55.392Z,101316.41
2019-06-07T07:41:16.009Z,101321.79
2019-06-07T07:42:21.608Z,101318.41
2019-06-07T07:43:22.705Z,101319.77
2019-06-07T07:44:25.019Z,101324.77
2019-06-07T07:45:27.633Z,101325.59
2019-06-07T07:46:30.377Z,101319.30
2019-06-07T07:47:33.231Z,101320.10
2019-06-07T07:48:35.466Z,101315.13
2019-06-07T07:49:38.078Z,101315.38
2019-06-07T07:50:40.327Z,101311.44
2019-06-07T07:51:44.035Z,101314.15
2019-06-07T07:52:49.082Z,101314.41
2019-06-07T07:54:02.089Z,101313.22
2019-06-07T07:54:57.854Z,101315.05
2019-06-07T07:56:00.109Z,101315.44
2019-06-07T07:57:02.757Z,101310.72
2019-06-07T07:58:05.370Z,101312.70
2019-06-07T07:59:08.133Z,101311.25
2019-06-07T08:00:48.730Z,101314.00
2019-06-07T08:01:14.859Z,101313.87
2019-06-07T08:02:17.447Z,101318.33
2019-06-07T08:03:19.825Z,101318.47
2019-06-07T08:04:29.410Z,101311.26
2019-06-07T08:05:41.892Z,101315.77
2019-06-07T08:06:30.951Z,101314.72
2019-06-07T08:07:33.283Z,101312.89
2019-06-07T08:08:35.984Z,101306.98
2019-06-07T08:09:38.233Z,101311.44
2019-06-07T08:10:40.857Z,101314.84
2019-06-07T08:11:43.107Z,101311.83
2019-06-07T08:13:09.083Z,101311.44
2019-06-07T08:13:50.613Z,101314.72
2019-06-07T08:14:57.614Z,101312.88
2019-06-07T08:15:59.524Z,101309.21
2019-06-07T08:17:01.407Z,101310.91
2019-06-07T08:18:04.638Z,101307.38
2019-06-07T08:19:07.488Z,101308.69
2019-06-07T08:20:09.709Z,101305.42
2019-06-07T08:21:24.397Z,101310.53
2019-06-07T08:22:16.555Z,101301.48
2019-06-07T08:23:19.383Z,101300.29
2019-06-07T08:24:21.701Z,101302.35
2019-06-07T08:25:24.319Z,101306.55
2019-06-07T08:26:26.557Z,101306.02
2019-06-07T08:27:29.223Z,101303.92
2019-06-07T08:28:31.452Z,101306.28
2019-06-07T08:29:44.848Z,101306.28
2019-06-07T08:31:02.365Z,101303.39
2019-06-07T08:31:42.279Z,101308.77
2019-06-07T08:32:44.510Z,101309.16
2019-06-07T08:33:47.761Z,101312.17
2019-06-07T08:34:54.920Z,101314.27
2019-06-07T08:36:11.349Z,101308.76
2019-06-07T08:37:01.247Z,101308.09
2019-06-07T08:39:07.717Z,101305.04
2019-06-07T08:40:11.831Z,101304.65
2019-06-07T08:41:14.075Z,101305.20
2019-06-07T08:42:21.979Z,101301.28
2019-06-07T08:43:21.292Z,101304.95
2019-06-07T08:44:25.794Z,101303.77
2019-06-07T08:45:28.130Z,101308.09
2019-06-07T08:46:30.762Z,101308.89
2019-06-07T08:47:33.001Z,101308.37
2019-06-07T08:48:35.587Z,101307.72
2019-06-07T08:49:37.943Z,101305.48
2019-06-07T08:50:40.543Z,101301.55
2019-06-07T08:51:43.948Z,101308.37
2019-06-07T08:52:46.579Z,101309.30
2019-06-07T08:54:02.929Z,101308.37
2019-06-07T08:54:54.885Z,101308.37
2019-06-07T08:56:04.456Z,101307.85
2019-06-07T08:57:19.302Z,101310.34
2019-06-07T08:58:08.405Z,101306.94
2019-06-07T08:59:11.412Z,101312.70
2019-06-07T09:01:17.621Z,101306.41
2019-06-07T09:02:23.820Z,101307.19
2019-06-07T09:03:24.090Z,101308.24
2019-06-07T09:04:26.309Z,101305.76
2019-06-07T09:05:28.924Z,101305.76
2019-06-07T09:07:35.406Z,101304.75
2019-06-07T09:08:37.628Z,101303.97
2019-06-07T09:09:40.230Z,101308.81
2019-06-07T09:10:42.490Z,101305.80
2019-06-07T09:11:45.116Z,101312.10
2019-06-07T09:12:47.344Z,101310.92
2019-06-07T09:13:49.939Z,101315.52
2019-06-07T09:15:06.696Z,101309.79
2019-06-07T09:16:03.571Z,101310.45
2019-06-07T09:17:05.484Z,101315.04
2019-06-07T09:19:10.999Z,101312.42
2019-06-07T09:20:35.204Z,101314.66
2019-06-07T09:21:17.175Z,101316.53
2019-06-07T09:22:19.784Z,101314.43
2019-06-07T09:23:22.014Z,101313.38
2019-06-07T09:24:24.637Z,101311.28
2019-06-07T09:25:26.889Z,101316.66
2019-06-07T09:26:29.646Z,101307.48
2019-06-07T09:27:31.878Z,101312.86
2019-06-07T09:28:34.488Z,101313.78
2019-06-07T09:29:36.730Z,101301.19
2019-06-07T09:30:39.728Z,101305.13
2019-06-07T09:31:52.658Z,101295.55
2019-06-07T09:32:46.220Z,101299.09
2019-06-07T09:33:48.450Z,101297.39
2019-06-07T09:34:51.067Z,101296.99
2019-06-07T09:35:53.261Z,101299.88
2019-06-07T09:36:58.157Z,101298.95
2019-06-07T09:38:18.126Z,101299.35
2019-06-07T09:39:08.313Z,101301.05
2019-06-07T09:40:23.212Z,101304.59
2019-06-07T09:41:13.242Z,101302.89
2019-06-07T09:42:15.448Z,101301.58
2019-06-07T09:43:59.900Z,101301.09
2019-06-07T09:44:26.045Z,101300.56
2019-06-07T09:45:26.363Z,101304.24
2019-06-07T09:46:28.633Z,101303.98
2019-06-07T09:47:33.083Z,101300.96
2019-06-07T09:49:09.741Z,101299.52
2019-06-07T09:49:39.587Z,101297.42
2019-06-07T09:50:41.859Z,101297.81
2019-06-07T09:51:44.480Z,101295.33
2019-06-07T09:52:58.679Z,101299.39
2019-06-07T09:53:51.980Z,101289.16
2019-06-07T09:55:23.102Z,101289.95
2019-06-07T09:56:02.850Z,101287.72
2019-06-07T09:57:07.051Z,101291.25
2019-06-07T09:58:47.586Z,101291.39
2019-06-07T09:59:12.851Z,101285.61
2019-06-07T10:00:39.137Z,101287.98
2019-06-07T10:01:18.678Z,101284.44
2019-06-07T10:02:21.272Z,101285.61
2019-06-07T10:03:23.492Z,101286.27
2019-06-07T10:04:31.114Z,101290.73
2019-06-07T10:05:29.964Z,101290.34
2019-06-07T10:06:32.583Z,101281.16
2019-06-07T10:07:34.805Z,101288.63
2019-06-07T10:10:09.328Z,101287.45
2019-06-07T10:10:45.576Z,101289.29
2019-06-07T10:11:47.906Z,101282.20
2019-06-07T10:12:50.517Z,101282.33
2019-06-07T10:13:52.728Z,101280.63
2019-06-07T10:14:55.361Z,101279.70
2019-06-07T10:15:58.753Z,101275.77
2019-06-07T10:17:03.133Z,101267.51
2019-06-07T10:18:05.498Z,101260.03
2019-06-07T10:19:09.747Z,101261.34
2019-06-07T10:20:11.967Z,101253.08
2019-06-07T10:21:15.472Z,101250.84
2019-06-07T10:22:17.921Z,101245.20
2019-06-07T10:23:20.525Z,101250.09
2019-06-07T10:24:22.741Z,101246.16
2019-06-07T10:25:25.354Z,101246.68
2019-06-07T10:26:27.599Z,101248.52
2019-06-07T10:27:30.198Z,101243.66
2019-06-07T10:28:32.471Z,101245.37
2019-06-07T10:29:35.602Z,101255.47
2019-06-07T10:30:37.903Z,101258.09
2019-06-07T10:31:40.646Z,101257.17
2019-06-07T10:32:42.874Z,101260.72
2019-06-07T10:33:45.487Z,101262.55
2019-06-07T10:34:47.758Z,101251.66
2019-06-07T10:35:50.316Z,101250.75
2019-06-07T10:36:52.543Z,101245.10
2019-06-07T10:37:58.071Z,101245.10
2019-06-07T10:38:59.049Z,101242.88
2019-06-07T10:40:02.911Z,101243.80
2019-06-07T10:41:05.263Z,101238.94
2019-06-07T10:42:09.558Z,101238.55
2019-06-07T10:43:14.471Z,101231.23
2019-06-07T10:44:16.450Z,101233.86
2019-06-07T10:45:18.712Z,101237.39
2019-06-07T10:46:21.357Z,101236.87
2019-06-07T10:47:23.588Z,101228.21
2019-06-07T10:48:26.194Z,101233.98
2019-06-07T10:49:28.419Z,101226.63
2019-06-07T10:50:31.035Z,101229.65
2019-06-07T10:51:35.030Z,101234.50
2019-06-07T10:52:37.587Z,101227.42
2019-06-07T10:53:40.807Z,101229.78
2019-06-07T10:54:43.435Z,101235.03
2019-06-07T10:55:45.669Z,101231.48
2019-06-07T10:56:48.295Z,101226.77
2019-06-07T10:57:50.583Z,101225.84
2019-06-07T10:58:53.119Z,101232.80
2019-06-07T10:59:55.390Z,101236.47
2019-06-07T11:00:57.987Z,101233.98
2019-06-07T11:02:00.208Z,101229.02
2019-06-07T11:03:03.611Z,101228.86
2019-06-07T11:04:05.941Z,101229.13
2019-06-07T11:05:09.959Z,101224.39
2019-06-07T11:06:12.460Z,101225.47
2019-06-07T11:07:15.064Z,101226.23
2019-06-07T11:08:17.288Z,101226.52
2019-06-07T11:09:19.900Z,101230.31
2019-06-07T11:10:22.118Z,101228.09
2019-06-07T11:11:25.183Z,101231.90
2019-06-07T11:12:27.354Z,101222.45
2019-06-07T11:13:29.963Z,101227.94
2019-06-07T11:14:32.193Z,101229.25
2019-06-07T11:15:35.053Z,101220.85
2019-06-07T11:16:37.274Z,101218.23
2019-06-07T11:17:39.883Z,101219.14
2019-06-07T11:18:42.098Z,101211.04
2019-06-07T11:19:44.713Z,101207.23
2019-06-07T11:20:46.959Z,101207.86
2019-06-07T11:21:49.722Z,101206.84
2019-06-07T11:22:51.934Z,101203.42
2019-06-07T11:23:54.531Z,101207.23
2019-06-07T11:24:56.808Z,101208.01
2019-06-07T11:25:59.482Z,101210.90
2019-06-07T11:27:01.661Z,101207.63
2019-06-07T11:28:04.268Z,101203.69
2019-06-07T11:29:06.714Z,101207.10
2019-06-07T11:30:10.548Z,101202.25
2019-06-07T11:31:13.319Z,101208.27
2019-06-07T11:32:16.425Z,101200.27
2019-06-07T11:33:18.869Z,101199.75
2019-06-07T11:34:21.635Z,101204.21
2019-06-07T11:35:26.867Z,101196.34
2019-06-07T11:36:32.418Z,101195.81
2019-06-07T11:37:34.761Z,101196.60
2019-06-07T11:38:37.371Z,101200.94
2019-06-07T11:39:39.585Z,101199.23
2019-06-07T11:40:42.217Z,101197.00
2019-06-07T11:41:44.451Z,101196.60
2019-06-07T11:42:47.061Z,101198.05
2019-06-07T11:43:49.276Z,101191.48
2019-06-07T11:44:56.817Z,101191.36
2019-06-07T11:45:55.786Z,101198.44
2019-06-07T11:46:58.444Z,101195.81
2019-06-07T11:48:00.631Z,101192.80
2019-06-07T11:49:03.239Z,101195.02
2019-06-07T11:50:05.477Z,101183.73
2019-06-07T11:51:08.566Z,101178.09
2019-06-07T11:52:11.414Z,101175.47
2019-06-07T11:53:14.657Z,101179.80
2019-06-07T11:54:20.373Z,101178.61
2019-06-07T11:55:21.170Z,101169.82
2019-06-07T11:56:23.383Z,101174.67
2019-06-07T11:57:26.010Z,101177.30
2019-06-07T11:58:28.258Z,101176.38
2019-06-07T11:59:30.848Z,101175.33
2019-06-07T12:00:34.349Z,101174.67
2019-06-07T12:01:37.399Z,101180.05
2019-06-07T12:02:39.839Z,101171.27
2019-06-07T12:03:42.609Z,101176.11
2019-06-07T12:04:44.817Z,101171.66
2019-06-07T12:05:47.437Z,101162.99
2019-06-07T12:06:49.720Z,101166.92
2019-06-07T12:07:52.326Z,101174.93
2019-06-07T12:08:54.551Z,101167.45
2019-06-07T12:09:57.169Z,101174.02